createdAt,value
2022-09-16T00:00:49.033Z,100165.81
2022-09-16T00:03:16.505Z,100162.00
2022-09-16T00:05:46.356Z,100150.81
2022-09-16T00:08:13.375Z,100154.25
2022-09-16T00:10:40.824Z,100154.25
2022-09-16T00:13:07.505Z,100153.63
2022-09-16T00:15:34.105Z,100162.25
2022-09-16T00:18:00.581Z,100162.75
2022-09-16T00:20:28.354Z,100155.09
2022-09-16T00:22:54.820Z,100158.31
2022-09-16T00:25:21.315Z,100149.19
2022-09-16T00:27:48.619Z,100151.41
2022-09-16T00:30:15.433Z,100151.41
2022-09-16T00:32:41.862Z,100160.34
2022-09-16T00:35:08.400Z,100153.03
2022-09-16T00:37:35.057Z,100154.75
2022-09-16T00:40:01.674Z,100154.06
2022-09-16T00:42:28.142Z,100165.69
2022-09-16T00:44:56.370Z,100157.56
2022-09-16T00:47:42.041Z,100155.66
2022-09-16T00:50:10.698Z,100163.19
2022-09-16T00:52:37.773Z,100160.28
2022-09-16T00:55:07.128Z,100158.78
2022-09-16T00:57:34.349Z,100154.50
2022-09-16T01:00:01.469Z,100162.47
2022-09-16T01:02:28.644Z,100158.97
2022-09-16T01:05:04.579Z,100144.66
2022-09-16T01:07:37.531Z,100153.06
2022-09-16T01:10:04.201Z,100140.28
2022-09-16T01:12:31.224Z,100147.69
2022-09-16T01:14:58.423Z,100152.75
2022-09-16T01:17:33.822Z,100147.34
2022-09-16T01:20:06.032Z,100150.63
2022-09-16T01:22:32.442Z,100151.13
2022-09-16T01:25:19.171Z,100153.03
2022-09-16T01:27:45.587Z,100154.34
2022-09-16T01:30:15.119Z,100149.75
2022-09-16T01:32:41.638Z,100152.75
2022-09-16T01:35:11.609Z,100157.16
2022-09-16T01:37:56.680Z,100151.75
2022-09-16T01:40:26.262Z,100153.84
2022-09-16T01:43:07.488Z,100146.72
2022-09-16T01:45:43.811Z,100146.72
2022-09-16T01:48:17.324Z,100165.16
2022-09-16T01:50:51.245Z,100150.03
2022-09-16T01:53:24.609Z,100146.97
2022-09-16T01:55:54.450Z,100144.44
2022-09-16T01:58:40.020Z,100130.09
2022-09-16T02:01:13.501Z,100114.09
2022-09-16T02:03:43.833Z,100091.44
2022-09-16T02:06:14.959Z,100086.97
2022-09-16T02:08:47.768Z,100105.50
2022-09-16T02:11:15.798Z,100127.53
2022-09-16T02:13:51.640Z,100130.59
2022-09-16T02:16:25.861Z,100155.44
2022-09-16T02:18:55.599Z,100145.72
2022-09-16T02:21:24.271Z,100150.03
2022-09-16T02:23:52.165Z,100151.47
2022-09-16T02:26:21.520Z,100150.63
2022-09-16T02:28:49.496Z,100140.94
2022-09-16T02:31:17.632Z,100136.00
2022-09-16T02:33:50.703Z,100140.31
2022-09-16T02:36:20.122Z,100145.91
2022-09-16T02:38:49.475Z,100148.13
2022-09-16T02:41:16.081Z,100161.47
2022-09-16T02:43:42.908Z,100166.88
2022-09-16T02:46:09.449Z,100171.50
2022-09-16T02:49:11.512Z,100173.41
2022-09-16T02:51:56.770Z,100171.31
2022-09-16T02:54:26.433Z,100169.69
2022-09-16T02:56:54.263Z,100181.03
2022-09-16T02:59:21.527Z,100163.19
2022-09-16T03:01:48.129Z,100165.72
2022-09-16T03:04:16.236Z,100168.22
2022-09-16T03:06:43.057Z,100169.00
2022-09-16T03:09:10.558Z,100166.63
2022-09-16T03:11:55.850Z,100164.41
2022-09-16T03:14:25.275Z,100159.59
2022-09-16T03:16:54.749Z,100165.00
2022-09-16T03:19:21.256Z,100161.78
2022-09-16T03:22:05.148Z,100157.19
2022-09-16T03:24:42.912Z,100150.97
2022-09-16T03:27:35.792Z,100143.13
2022-09-16T03:30:07.675Z,100143.38
2022-09-16T03:32:39.880Z,100135.16
2022-09-16T03:35:18.492Z,100135.16
2022-09-16T03:37:45.645Z,100140.06
2022-09-16T03:40:14.005Z,100130.97
2022-09-16T03:42:41.384Z,100141.78
2022-09-16T03:45:08.245Z,100136.38
2022-09-16T03:47:34.859Z,100134.84
2022-09-16T03:50:01.381Z,100131.94
2022-09-16T03:52:27.892Z,100129.53
2022-09-16T03:54:54.327Z,100130.03
2022-09-16T03:57:20.719Z,100127.53
2022-09-16T03:59:47.141Z,100131.53
2022-09-16T04:02:13.605Z,100128.94
2022-09-16T04:04:40.114Z,100131.16
2022-09-16T04:07:06.561Z,100128.13
2022-09-16T04:09:33.033Z,100129.03
2022-09-16T04:11:59.592Z,100125.34
2022-09-16T04:14:26.073Z,100122.34
2022-09-16T04:16:52.492Z,100122.03
2022-09-16T04:19:19.023Z,100127.31
2022-09-16T04:21:45.440Z,100125.75
2022-09-16T04:24:13.682Z,100123.03
2022-09-16T04:26:40.765Z,100121.53
2022-09-16T04:29:07.290Z,100113.34
2022-09-16T04:31:33.966Z,100116.16
2022-09-16T04:34:03.475Z,100119.97
2022-09-16T04:36:29.984Z,100120.16
2022-09-16T04:38:56.453Z,100123.06
2022-09-16T04:41:24.475Z,100120.56
2022-09-16T04:43:56.040Z,100129.16
2022-09-16T04:46:22.880Z,100128.88
2022-09-16T04:48:50.191Z,100118.63
2022-09-16T04:51:17.492Z,100122.13
2022-09-16T04:53:44.214Z,100118.06
2022-09-16T04:56:18.251Z,100119.94
2022-09-16T04:58:46.084Z,100122.13
2022-09-16T05:01:13.981Z,100118.44
2022-09-16T05:03:41.372Z,100121.75
2022-09-16T05:06:20.781Z,100133.00
2022-09-16T05:08:48.171Z,100129.97
2022-09-16T05:11:16.174Z,100123.97
2022-09-16T05:13:42.583Z,100130.16
2022-09-16T05:16:10.287Z,100128.75
2022-09-16T05:18:37.420Z,100139.56
2022-09-16T05:21:04.813Z,100122.75
2022-09-16T05:23:31.860Z,100124.97
2022-09-16T05:26:05.888Z,100124.66
2022-09-16T05:28:32.902Z,100133.28
2022-09-16T05:31:11.618Z,100137.38
2022-09-16T05:33:42.509Z,100132.28
2022-09-16T05:36:13.523Z,100132.78
2022-09-16T05:38:40.234Z,100123.06
2022-09-16T05:41:07.071Z,100136.56
2022-09-16T05:43:34.070Z,100138.38
2022-09-16T05:46:01.282Z,100133.78
2022-09-16T05:48:28.174Z,100126.75
2022-09-16T05:50:56.579Z,100131.38
2022-09-16T05:53:23.979Z,100128.53
2022-09-16T05:55:56.701Z,100131.16
2022-09-16T05:58:23.582Z,100131.03
2022-09-16T06:00:50.127Z,100140.13
2022-09-16T06:03:17.075Z,100146.56
2022-09-16T06:05:45.779Z,100149.97
2022-09-16T06:08:12.429Z,100145.34
2022-09-16T06:10:40.350Z,100141.13
2022-09-16T06:13:06.766Z,100143.72
2022-09-16T06:15:34.143Z,100135.28
2022-09-16T06:18:05.528Z,100147.09
2022-09-16T06:20:32.845Z,100136.28
2022-09-16T06:22:59.275Z,100142.97
2022-09-16T06:25:25.783Z,100139.47
2022-09-16T06:27:52.257Z,100143.19
2022-09-16T06:30:18.747Z,100138.63
2022-09-16T06:32:45.413Z,100140.59
2022-09-16T06:35:11.935Z,100131.09
2022-09-16T06:37:38.436Z,100137.69
2022-09-16T06:40:05.085Z,100130.84
2022-09-16T06:42:32.024Z,100133.59
2022-09-16T06:45:04.324Z,100136.63
2022-09-16T06:47:33.137Z,100132.63
2022-09-16T06:50:00.344Z,100132.63
2022-09-16T06:52:27.271Z,100128.31
2022-09-16T06:54:54.167Z,100132.47
2022-09-16T06:57:23.014Z,100124.59
2022-09-16T06:59:49.892Z,100130.25
2022-09-16T07:02:16.554Z,100135.81
2022-09-16T07:04:43.059Z,100130.06
2022-09-16T07:07:10.497Z,100134.56
2022-09-16T07:09:37.453Z,100131.38
2022-09-16T07:12:03.960Z,100127.09
2022-09-16T07:14:32.528Z,100127.47
2022-09-16T07:17:00.360Z,100130.84
2022-09-16T07:19:27.001Z,100134.69
2022-09-16T07:21:53.571Z,100133.81
2022-09-16T07:24:20.005Z,100141.69
2022-09-16T07:26:46.933Z,100146.84
2022-09-16T07:29:15.489Z,100145.09
2022-09-16T07:31:42.287Z,100146.66
2022-09-16T07:34:10.080Z,100153.72
2022-09-16T07:36:39.861Z,100149.19
2022-09-16T07:39:06.683Z,100158.44
2022-09-16T07:41:34.754Z,100161.84
2022-09-16T07:44:01.537Z,100159.28
2022-09-16T07:46:29.101Z,100165.69
2022-09-16T07:48:55.909Z,100163.78
2022-09-16T07:51:23.579Z,100168.69
2022-09-16T07:53:53.778Z,100164.22
2022-09-16T07:56:21.188Z,100170.06
2022-09-16T07:58:47.703Z,100168.41
2022-09-16T08:01:15.355Z,100166.78
2022-09-16T08:03:42.518Z,100178.25
2022-09-16T08:06:14.213Z,100168.41
2022-09-16T08:08:41.137Z,100153.94
2022-09-16T08:11:08.149Z,100175.31
2022-09-16T08:13:35.937Z,100164.97
2022-09-16T08:16:06.278Z,100162.09
2022-09-16T08:18:32.902Z,100156.69
2022-09-16T08:21:04.706Z,100164.72
2022-09-16T08:23:32.514Z,100161.75
2022-09-16T08:25:59.014Z,100164.03
2022-09-16T08:28:27.964Z,100161.00
2022-09-16T08:31:00.176Z,100165.66
2022-09-16T08:33:27.089Z,100168.75
2022-09-16T08:36:02.593Z,100174.16
2022-09-16T08:38:29.539Z,100173.41
2022-09-16T08:41:20.154Z,100182.84
2022-09-16T08:44:05.365Z,100180.28
2022-09-16T08:46:41.763Z,100172.34
2022-09-16T08:49:31.869Z,100181.03
2022-09-16T08:52:00.206Z,100171.19
2022-09-16T08:54:30.279Z,100179.38
2022-09-16T08:56:59.890Z,100184.19
2022-09-16T08:59:28.595Z,100181.41
2022-09-16T09:02:09.625Z,100181.22
2022-09-16T09:04:36.701Z,100173.34
2022-09-16T09:07:22.292Z,100170.25
2022-09-16T09:10:05.882Z,100168.91
2022-09-16T09:13:04.563Z,100165.19
2022-09-16T09:15:53.697Z,100177.25
2022-09-16T09:18:27.501Z,100182.47
2022-09-16T09:21:04.809Z,100183.38
2022-09-16T09:23:51.846Z,100179.84
2022-09-16T09:26:22.588Z,100174.25
2022-09-16T09:29:01.544Z,100181.66
2022-09-16T09:31:34.352Z,100187.53
2022-09-16T09:34:16.147Z,100179.16
2022-09-16T09:37:03.875Z,100176.03
2022-09-16T09:39:30.314Z,100170.66
2022-09-16T09:42:05.931Z,100166.72
2022-09-16T09:44:32.499Z,100165.41
2022-09-16T09:47:02.040Z,100155.75
2022-09-16T09:49:36.111Z,100154.16
2022-09-16T09:52:08.083Z,100139.78
2022-09-16T09:54:35.465Z,100150.34
2022-09-16T09:57:05.033Z,100151.00
2022-09-16T09:59:31.485Z,100159.28
2022-09-16T10:01:58.655Z,100152.22
2022-09-16T10:04:25.266Z,100165.00
2022-09-16T10:06:53.810Z,100160.34
2022-09-16T10:09:21.142Z,100157.00
2022-09-16T10:11:49.108Z,100160.78
2022-09-16T10:14:23.229Z,100161.25
2022-09-16T10:16:51.172Z,100163.97
2022-09-16T10:19:25.408Z,100166.41
2022-09-16T10:22:11.806Z,100161.59
2022-09-16T10:24:39.663Z,100153.63
2022-09-16T10:27:21.454Z,100157.16
2022-09-16T10:29:48.440Z,100141.78
2022-09-16T10:32:19.675Z,100141.06
2022-09-16T10:34:46.611Z,100137.47
2022-09-16T10:37:13.501Z,100132.00
2022-09-16T10:39:44.873Z,100129.94
2022-09-16T10:42:19.704Z,100124.91
2022-09-16T10:44:48.255Z,100114.63
2022-09-16T10:47:41.264Z,100117.84
2022-09-16T10:50:08.212Z,100111.91
2022-09-16T10:52:42.621Z,100106.41
2022-09-16T10:55:26.795Z,100116.38
2022-09-16T10:57:54.700Z,100120.94
2022-09-16T11:00:23.074Z,100117.81
2022-09-16T11:02:55.812Z,100120.44
2022-09-16T11:05:30.874Z,100115.47
2022-09-16T11:08:23.753Z,100122.97
2022-09-16T11:10:59.463Z,100113.66
2022-09-16T11:13:33.447Z,100113.59
2022-09-16T11:16:00.003Z,100104.31
2022-09-16T11:18:49.277Z,100112.81
2022-09-16T11:21:30.915Z,100113.97
2022-09-16T11:24:03.734Z,100105.56
2022-09-16T11:26:36.751Z,100104.69
2022-09-16T11:29:26.773Z,100088.16
2022-09-16T11:31:59.880Z,100102.69
2022-09-16T11:34:31.285Z,100106.75
2022-09-16T11:37:06.414Z,100091.56
2022-09-16T11:39:51.298Z,100099.41
2022-09-16T11:42:33.068Z,100091.16
2022-09-16T11:45:35.178Z,100085.63
2022-09-16T11:48:04.628Z,100083.91
2022-09-16T11:50:37.447Z,100094.00
2022-09-16T11:53:07.427Z,100090.06
2022-09-16T11:55:49.064Z,100085.34
2022-09-16T11:58:24.733Z,100086.53
2022-09-16T12:00:56.673Z,100082.09
2022-09-16T12:03:28.538Z,100081.97
2022-09-16T12:06:03.624Z,100074.19
2022-09-16T12:08:33.021Z,100081.63
2022-09-16T12:11:05.145Z,100077.06
2022-09-16T12:13:37.176Z,100078.63
2022-09-16T12:16:13.626Z,100071.44
2022-09-16T12:18:43.006Z,100066.16
2022-09-16T12:21:28.644Z,100065.97
2022-09-16T12:24:09.347Z,100065.75
2022-09-16T12:26:45.350Z,100066.81
2022-09-16T12:29:15.929Z,100073.66
2022-09-16T12:31:51.522Z,100074.28
2022-09-16T12:34:20.829Z,100084.09
2022-09-16T12:36:57.833Z,100079.56
2022-09-16T12:39:24.498Z,100091.69
2022-09-16T12:42:06.430Z,100085.97
2022-09-16T12:44:36.309Z,100078.19
2022-09-16T12:47:25.103Z,100075.09
2022-09-16T12:50:10.125Z,100067.91
2022-09-16T12:52:57.236Z,100079.38
2022-09-16T12:55:29.935Z,100075.59
2022-09-16T12:58:15.160Z,100063.81
2022-09-16T13:01:00.438Z,100066.66
2022-09-16T13:03:28.221Z,100072.88
2022-09-16T13:05:57.657Z,100066.72
2022-09-16T13:08:26.603Z,100065.78
2022-09-16T13:12:09.548Z,100072.41
2022-09-16T13:13:55.543Z,100067.03
2022-09-16T13:16:34.474Z,100061.94
2022-09-16T13:19:19.188Z,100064.75
2022-09-16T13:21:47.025Z,100063.63
2022-09-16T13:24:17.491Z,100067.91
2022-09-16T13:26:45.131Z,100068.03
2022-09-16T13:29:30.377Z,100074.63
2022-09-16T13:34:28.182Z,100077.84
2022-09-16T13:36:54.684Z,100100.81
2022-09-16T13:39:29.113Z,100116.41
2022-09-16T13:41:55.878Z,100109.44
2022-09-16T13:44:30.447Z,100113.41
2022-09-16T13:47:09.135Z,100117.47
2022-09-16T13:49:42.997Z,100112.34
2022-09-16T13:52:15.772Z,100110.06
2022-09-16T13:55:09.943Z,100115.28
2022-09-16T13:57:56.177Z,100114.00
2022-09-16T14:00:24.430Z,100110.50
2022-09-16T14:02:53.831Z,100111.41
2022-09-16T14:05:24.554Z,100117.13
2022-09-16T14:07:55.475Z,100103.88
2022-09-16T14:10:26.552Z,100097.88
2022-09-16T14:13:02.156Z,100103.78
2022-09-16T14:15:29.994Z,100109.44
2022-09-16T14:17:59.500Z,100105.44
2022-09-16T14:20:26.153Z,100110.31
2022-09-16T14:23:02.863Z,100106.06
2022-09-16T14:25:31.108Z,100109.41
2022-09-16T14:28:26.620Z,100112.00
2022-09-16T14:30:56.446Z,100105.31
2022-09-16T14:33:43.647Z,100117.53
2022-09-16T14:36:23.054Z,100111.03
2022-09-16T14:39:00.234Z,100109.25
2022-09-16T14:41:32.636Z,100123.09
2022-09-16T14:44:07.134Z,100114.94
2022-09-16T14:46:34.025Z,100127.38
2022-09-16T14:49:00.501Z,100118.63
2022-09-16T14:51:27.486Z,100110.44
2022-09-16T14:54:11.678Z,100108.41
2022-09-16T14:56:39.457Z,100106.66
2022-09-16T14:59:06.647Z,100109.03
2022-09-16T15:01:33.120Z,100111.13
2022-09-16T15:04:18.562Z,100115.56
2022-09-16T15:07:05.093Z,100113.31
2022-09-16T15:09:47.932Z,100118.91
2022-09-16T15:12:23.744Z,100114.41
2022-09-16T15:14:50.553Z,100113.94
2022-09-16T15:17:19.349Z,100120.59
2022-09-16T15:19:49.414Z,100120.59
2022-09-16T15:22:16.146Z,100116.47
2022-09-16T15:24:42.714Z,100119.09
2022-09-16T15:27:09.462Z,100132.47
2022-09-16T15:29:46.571Z,100133.50
2022-09-16T15:32:17.928Z,100130.16
2022-09-16T15:34:44.531Z,100127.28
2022-09-16T15:37:28.910Z,100136.63
2022-09-16T15:39:55.529Z,100130.94
2022-09-16T15:42:25.463Z,100128.72
2022-09-16T15:44:59.822Z,100139.94
2022-09-16T15:47:28.931Z,100144.75
2022-09-16T15:50:16.813Z,100141.22
2022-09-16T15:53:09.878Z,100139.00
2022-09-16T15:55:39.129Z,100150.97
2022-09-16T15:58:25.876Z,100145.84
2022-09-16T16:00:55.619Z,100149.69
2022-09-16T16:03:22.484Z,100141.38
2022-09-16T16:05:53.128Z,100135.78
2022-09-16T16:08:38.377Z,100138.00
2022-09-16T16:11:09.298Z,100136.44
2022-09-16T16:13:35.917Z,100143.88
2022-09-16T16:16:04.413Z,100142.31
2022-09-16T16:21:22.944Z,100142.47
2022-09-16T16:23:49.437Z,100141.84
2022-09-16T16:26:15.975Z,100148.25
2022-09-16T16:28:42.539Z,100146.03
2022-09-16T16:31:10.389Z,100150.13
2022-09-16T16:33:38.024Z,100147.06
2022-09-16T16:36:06.976Z,100155.50
2022-09-16T16:38:33.396Z,100155.50
2022-09-16T16:40:59.899Z,100165.75
2022-09-16T16:43:26.387Z,100178.41
2022-09-16T16:45:53.719Z,100184.44
2022-09-16T16:48:20.241Z,100180.81
2022-09-16T16:50:54.628Z,100178.22
2022-09-16T16:53:21.183Z,100186.94
2022-09-16T16:55:47.605Z,100187.97
2022-09-16T16:58:14.019Z,100180.75
2022-09-16T17:00:40.542Z,100196.94
2022-09-16T17:03:07.045Z,100193.75
2022-09-16T17:05:33.544Z,100184.19
2022-09-16T17:08:00.466Z,100180.09
2022-09-16T17:10:26.902Z,100176.28
2022-09-16T17:12:53.467Z,100180.94
2022-09-16T17:15:19.910Z,100189.00
2022-09-16T17:17:46.396Z,100196.19
2022-09-16T17:20:12.881Z,100194.78
2022-09-16T17:22:39.776Z,100201.00
2022-09-16T17:25:06.279Z,100209.00
2022-09-16T17:27:32.684Z,100207.50
2022-09-16T17:30:01.050Z,100210.38
2022-09-16T17:32:27.702Z,100212.38
2022-09-16T17:34:54.188Z,100209.09
2022-09-16T17:37:20.711Z,100209.09
2022-09-16T17:39:48.623Z,100201.88
2022-09-16T17:42:15.038Z,100200.56
2022-09-16T17:44:42.909Z,100197.34
2022-09-16T17:47:10.310Z,100197.47
2022-09-16T17:49:36.736Z,100205.19
2022-09-16T17:52:03.323Z,100206.41
2022-09-16T17:54:29.841Z,100210.69
2022-09-16T17:56:56.338Z,100207.09
2022-09-16T17:59:22.846Z,100204.38
2022-09-16T18:01:49.407Z,100203.50
2022-09-16T18:04:15.949Z,100206.28
2022-09-16T18:06:43.495Z,100210.09
2022-09-16T18:09:10.106Z,100218.81
2022-09-16T18:11:37.744Z,100221.72
2022-09-16T18:14:05.519Z,100224.00
2022-09-16T18:16:32.849Z,100224.72
2022-09-16T18:19:00.582Z,100228.81
2022-09-16T18:21:27.815Z,100226.59
2022-09-16T18:23:56.327Z,100231.50
2022-09-16T18:26:25.621Z,100236.41
2022-09-16T18:31:40.949Z,100229.72
2022-09-16T18:34:07.798Z,100236.41
2022-09-16T18:36:36.927Z,100240.63
2022-09-16T18:39:04.176Z,100236.84
2022-09-16T18:41:33.467Z,100243.72
2022-09-16T18:44:01.210Z,100243.53
2022-09-16T18:46:29.033Z,100248.25
2022-09-16T18:48:56.061Z,100248.72
2022-09-16T18:51:24.852Z,100241.31
2022-09-16T18:53:52.915Z,100252.13
2022-09-16T18:56:21.728Z,100247.09
2022-09-16T18:59:09.929Z,100250.09
2022-09-16T19:01:37.738Z,100250.91
2022-09-16T19:04:05.783Z,100246.09
2022-09-16T19:06:36.697Z,100251.28
2022-09-16T19:09:05.480Z,100257.97
2022-09-16T19:11:32.978Z,100258.06
2022-09-16T19:13:59.650Z,100251.81
2022-09-16T19:16:27.338Z,100249.81
2022-09-16T19:18:55.566Z,100258.50
2022-09-16T19:21:23.463Z,100266.09
2022-09-16T19:23:58.636Z,100268.56
2022-09-16T19:26:26.053Z,100277.00
2022-09-16T19:28:52.684Z,100275.31
2022-09-16T19:31:19.371Z,100280.63
2022-09-16T19:33:46.415Z,100276.47
2022-09-16T19:36:13.966Z,100281.06
2022-09-16T19:38:40.896Z,100289.47
2022-09-16T19:41:07.920Z,100290.50
2022-09-16T19:43:34.432Z,100279.97
2022-09-16T19:49:09.680Z,100291.28
2022-09-16T19:51:36.179Z,100287.69
2022-09-16T19:54:03.264Z,100292.09
2022-09-16T19:56:31.618Z,100291.44
2022-09-16T19:58:58.232Z,100288.50
2022-09-16T20:01:26.271Z,100288.31
2022-09-16T20:03:53.145Z,100284.91
2022-09-16T20:06:21.084Z,100284.75
2022-09-16T20:08:48.432Z,100293.84
2022-09-16T20:11:19.040Z,100293.22
2022-09-16T20:13:49.557Z,100292.66
2022-09-16T20:16:16.552Z,100293.81
2022-09-16T20:18:43.278Z,100286.88
2022-09-16T20:21:11.013Z,100288.53
2022-09-16T20:23:38.151Z,100282.41
2022-09-16T20:26:06.323Z,100277.88
2022-09-16T20:28:33.752Z,100284.94
2022-09-16T20:31:00.814Z,100282.94
2022-09-16T20:33:32.595Z,100297.00
2022-09-16T20:36:10.580Z,100296.41
2022-09-16T20:38:38.484Z,100294.81
2022-09-16T20:41:09.260Z,100295.03
2022-09-16T20:43:36.145Z,100297.22
2022-09-16T20:46:08.089Z,100292.88
2022-09-16T20:48:35.342Z,100306.59
2022-09-16T20:51:06.792Z,100301.16
2022-09-16T20:53:38.661Z,100314.59
2022-09-16T20:56:06.859Z,100311.38
2022-09-16T20:58:36.770Z,100314.22
2022-09-16T21:01:04.426Z,100322.34
2022-09-16T21:03:30.936Z,100330.50
2022-09-16T21:06:20.207Z,100332.69
2022-09-16T21:08:46.952Z,100325.72
2022-09-16T21:11:19.689Z,100325.13
2022-09-16T21:13:47.485Z,100327.03
2022-09-16T21:16:15.696Z,100333.22
2022-09-16T21:18:42.971Z,100341.38
2022-09-16T21:21:14.118Z,100336.53
2022-09-16T21:23:41.151Z,100337.66
2022-09-16T21:26:12.483Z,100338.78
2022-09-16T21:28:39.227Z,100341.47
2022-09-16T21:31:07.340Z,100346.38
2022-09-16T21:33:37.796Z,100341.03
2022-09-16T21:36:05.208Z,100343.19
2022-09-16T21:38:32.293Z,100340.50
2022-09-16T21:41:05.916Z,100350.22
2022-09-16T21:43:34.637Z,100347.00
2022-09-16T21:46:02.701Z,100351.84
2022-09-16T21:48:32.096Z,100345.09
2022-09-16T21:51:03.096Z,100344.50
2022-09-16T21:53:33.562Z,100341.53
2022-09-16T21:56:04.288Z,100358.22
2022-09-16T21:58:31.136Z,100358.22
2022-09-16T22:01:18.077Z,100355.81
2022-09-16T22:03:45.889Z,100352.06
2022-09-16T22:06:13.635Z,100352.41
2022-09-16T22:08:46.811Z,100352.16
2022-09-16T22:11:16.092Z,100349.56
2022-09-16T22:13:42.667Z,100351.25
2022-09-16T22:16:13.105Z,100353.13
2022-09-16T22:18:39.792Z,100353.22
2022-09-16T22:21:08.823Z,100356.44
2022-09-16T22:23:37.242Z,100362.94
2022-09-16T22:26:05.189Z,100369.66
2022-09-16T22:28:33.027Z,100369.38
2022-09-16T22:31:06.876Z,100369.97
2022-09-16T22:33:34.037Z,100371.59
2022-09-16T22:36:08.011Z,100374.28
2022-09-16T22:38:34.506Z,100369.44
2022-09-16T22:41:01.609Z,100366.47
2022-09-16T22:43:28.318Z,100365.69
2022-09-16T22:46:01.775Z,100366.00
2022-09-16T22:48:28.927Z,100365.69
2022-09-16T22:50:58.957Z,100357.63
2022-09-16T22:53:26.556Z,100358.69
2022-09-16T22:56:00.512Z,100357.91
2022-09-16T22:58:27.536Z,100354.69
2022-09-16T23:01:01.854Z,100354.94
2022-09-16T23:03:28.383Z,100352.00
2022-09-16T23:05:55.950Z,100350.09
2022-09-16T23:08:23.492Z,100353.13
2022-09-16T23:10:50.314Z,100358.25
2022-09-16T23:13:16.871Z,100360.44
2022-09-16T23:15:43.526Z,100365.31
2022-09-16T23:18:09.953Z,100364.00
2022-09-16T23:20:36.445Z,100357.81
2022-09-16T23:23:03.770Z,100357.78
2022-09-16T23:25:30.228Z,100358.28
2022-09-16T23:27:56.727Z,100352.38
2022-09-16T23:30:23.341Z,100355.06
2022-09-16T23:32:49.817Z,100355.34
2022-09-16T23:35:17.280Z,100358.31
2022-09-16T23:37:43.828Z,100358.56
2022-09-16T23:40:10.554Z,100365.59
2022-09-16T23:42:37.173Z,100370.16
2022-09-16T23:45:04.287Z,100373.94
2022-09-16T23:47:30.774Z,100370.13
2022-09-16T23:49:57.691Z,100368.50
2022-09-16T23:52:24.170Z,100373.88
2022-09-16T23:54:51.131Z,100364.47
2022-09-16T23:57:17.537Z,100371.72
2022-09-16T23:59:43.954Z,100372.75
